createdAt,value
2018-04-22T00:00:57.630Z,7.40
2018-04-22T00:03:26.319Z,6.80
2018-04-22T00:05:54.975Z,6.30
2018-04-22T00:08:23.674Z,6.00
2018-04-22T00:10:52.295Z,6.30
2018-04-22T00:13:21.063Z,6.93
2018-04-22T00:15:50.201Z,7.00
2018-04-22T00:18:19.588Z,7.10
2018-04-22T00:20:48.357Z,7.50
2018-04-22T00:23:17.041Z,7.57
2018-04-22T00:25:45.745Z,7.27
2018-04-22T00:28:14.353Z,7.33
2018-04-22T00:30:42.983Z,8.00
2018-04-22T00:33:11.558Z,8.40
2018-04-22T00:35:40.146Z,7.30
2018-04-22T00:38:08.896Z,8.23
2018-04-22T00:40:37.482Z,7.53
2018-04-22T00:43:06.280Z,6.47
2018-04-22T00:45:34.949Z,6.90
2018-04-22T00:48:04.611Z,7.00
2018-04-22T00:50:33.814Z,6.80
2018-04-22T00:53:02.538Z,7.03
2018-04-22T00:55:31.205Z,6.67
2018-04-22T00:58:00.596Z,7.53
2018-04-22T01:00:29.199Z,8.00
2018-04-22T01:02:57.783Z,7.90
2018-04-22T01:05:26.354Z,7.00
2018-04-22T01:07:55.748Z,6.63
2018-04-22T01:10:25.131Z,7.60
2018-04-22T01:12:53.699Z,5.23
2018-04-22T01:15:23.140Z,6.70
2018-04-22T01:17:51.791Z,7.13
2018-04-22T01:20:21.316Z,6.67
2018-04-22T01:22:50.616Z,6.80
2018-04-22T01:25:19.281Z,7.40
2018-04-22T01:27:48.599Z,6.57
2018-04-22T01:30:17.258Z,6.27
2018-04-22T01:32:45.824Z,6.00
2018-04-22T01:35:14.613Z,6.33
2018-04-22T01:37:43.167Z,6.90
2018-04-22T01:40:11.741Z,7.17
2018-04-22T01:42:41.482Z,7.37
2018-04-22T01:45:10.911Z,6.83
2018-04-22T01:47:39.560Z,8.27
2018-04-22T01:50:08.811Z,7.97
2018-04-22T01:52:38.629Z,7.73
2018-04-22T01:55:07.539Z,7.63
2018-04-22T01:57:36.195Z,6.77
2018-04-22T02:00:04.896Z,7.27
2018-04-22T02:02:33.645Z,7.30
2018-04-22T02:05:02.180Z,7.77
2018-04-22T02:07:30.757Z,7.97
2018-04-22T02:09:59.267Z,9.17
2018-04-22T02:12:27.903Z,8.00
2018-04-22T02:14:57.270Z,7.87
2018-04-22T02:17:25.903Z,7.50
2018-04-22T02:19:54.477Z,8.13
2018-04-22T02:22:23.198Z,8.57
2018-04-22T02:24:52.313Z,8.23
2018-04-22T02:27:21.292Z,7.80
2018-04-22T02:29:49.976Z,8.07
2018-04-22T02:32:18.650Z,7.47
2018-04-22T02:34:48.094Z,8.53
2018-04-22T02:37:16.806Z,8.43
2018-04-22T02:39:45.431Z,9.20
2018-04-22T02:42:14.768Z,9.17
2018-04-22T02:44:44.322Z,8.83
2018-04-22T02:47:12.965Z,7.60
2018-04-22T02:49:41.591Z,7.30
2018-04-22T02:52:11.051Z,6.93
2018-04-22T02:54:39.982Z,6.80
2018-04-22T02:57:09.133Z,7.83
2018-04-22T02:59:38.216Z,7.20
2018-04-22T03:02:06.799Z,8.30
2018-04-22T03:04:35.385Z,8.33
2018-04-22T03:07:03.976Z,8.70
2018-04-22T03:09:33.421Z,9.00
2018-04-22T03:12:01.999Z,7.73
2018-04-22T03:14:30.631Z,8.83
2018-04-22T03:16:59.390Z,8.90
2018-04-22T03:19:28.070Z,10.77
2018-04-22T03:21:56.835Z,8.47
2018-04-22T03:24:25.506Z,10.20
2018-04-22T03:26:54.228Z,8.97
2018-04-22T03:29:23.203Z,9.07
2018-04-22T03:31:53.597Z,9.70
2018-04-22T03:34:22.220Z,9.87
2018-04-22T03:36:51.543Z,9.67
2018-04-22T03:39:20.992Z,10.07
2018-04-22T03:41:49.767Z,9.60
2018-04-22T03:44:19.079Z,8.87
2018-04-22T03:46:47.789Z,7.83
2018-04-22T03:49:16.383Z,9.17
2018-04-22T03:51:45.013Z,8.13
2018-04-22T03:54:14.334Z,8.13
2018-04-22T03:56:44.238Z,7.87
2018-04-22T03:59:13.433Z,8.93
2018-04-22T04:01:42.373Z,8.27
2018-04-22T04:04:10.923Z,8.53
2018-04-22T04:06:40.381Z,6.20
2018-04-22T04:09:09.067Z,6.60
2018-04-22T04:11:37.646Z,7.00
2018-04-22T04:14:06.218Z,7.43
2018-04-22T04:16:34.898Z,6.87
2018-04-22T04:19:21.499Z,8.73
2018-04-22T04:22:07.819Z,9.67
2018-04-22T04:24:54.327Z,9.67
2018-04-22T04:30:26.854Z,9.43
2018-04-22T04:32:55.445Z,9.87
2018-04-22T04:35:24.154Z,9.53
2018-04-22T04:37:52.805Z,9.27
2018-04-22T04:40:21.386Z,8.27
2018-04-22T04:42:50.037Z,8.30
2018-04-22T04:45:18.704Z,8.20
2018-04-22T04:47:48.286Z,7.33
2018-04-22T04:50:17.189Z,6.53
2018-04-22T04:52:46.220Z,7.37
2018-04-22T04:55:15.109Z,7.60
2018-04-22T04:57:43.799Z,7.67
2018-04-22T05:00:12.589Z,7.40
2018-04-22T05:02:41.160Z,9.90
2018-04-22T05:05:09.718Z,8.93
2018-04-22T05:07:38.446Z,9.07
2018-04-22T05:10:07.022Z,8.77
2018-04-22T05:12:36.532Z,8.70
2018-04-22T05:15:05.996Z,8.53
2018-04-22T05:17:34.780Z,8.37
2018-04-22T05:20:04.215Z,9.43
2018-04-22T05:22:33.340Z,9.10
2018-04-22T05:25:02.534Z,7.80
2018-04-22T05:27:32.749Z,6.37
2018-04-22T05:30:01.547Z,7.97
2018-04-22T05:32:30.346Z,7.23
2018-04-22T05:34:58.996Z,7.43
2018-04-22T05:37:28.390Z,6.77
2018-04-22T05:39:57.170Z,7.57
2018-04-22T05:42:25.966Z,6.67
2018-04-22T05:44:54.669Z,6.90
2018-04-22T05:47:24.166Z,6.73
2018-04-22T05:49:53.296Z,6.83
2018-04-22T05:52:22.676Z,6.93
2018-04-22T05:54:52.186Z,6.47
2018-04-22T05:57:22.481Z,6.60
2018-04-22T05:59:52.106Z,5.97
2018-04-22T06:02:21.724Z,5.77
2018-04-22T06:04:50.388Z,5.73
2018-04-22T06:07:19.053Z,5.80
2018-04-22T06:09:47.698Z,5.70
2018-04-22T06:12:16.515Z,6.47
2018-04-22T06:14:45.180Z,5.70
2018-04-22T06:17:14.598Z,6.33
2018-04-22T06:19:44.160Z,6.53
2018-04-22T06:22:13.897Z,6.57
2018-04-22T06:24:43.158Z,6.87
2018-04-22T06:27:11.917Z,7.07
2018-04-22T06:29:40.866Z,6.47
2018-04-22T06:32:10.290Z,6.70
2018-04-22T06:34:39.587Z,7.27
2018-04-22T06:37:08.426Z,6.90
2018-04-22T06:39:37.184Z,7.80
2018-04-22T06:42:05.958Z,7.67
2018-04-22T06:44:34.845Z,7.90
2018-04-22T06:47:03.551Z,8.23
2018-04-22T06:49:32.644Z,8.03
2018-04-22T06:52:03.140Z,8.07
2018-04-22T06:54:33.257Z,7.77
2018-04-22T06:57:02.464Z,7.57
2018-04-22T06:59:31.714Z,9.43
2018-04-22T07:02:00.627Z,8.80
2018-04-22T07:04:29.812Z,8.00
2018-04-22T07:06:58.596Z,8.27
2018-04-22T07:09:28.063Z,8.83
2018-04-22T07:11:56.771Z,8.10
2018-04-22T07:14:25.711Z,8.43
2018-04-22T07:16:55.980Z,8.30
2018-04-22T07:19:25.930Z,7.00
2018-04-22T07:21:55.601Z,7.83
2018-04-22T07:24:24.511Z,7.43
2018-04-22T07:26:53.182Z,7.80
2018-04-22T07:29:22.053Z,8.20
2018-04-22T07:31:51.541Z,8.83
2018-04-22T07:34:20.205Z,8.40
2018-04-22T07:36:49.718Z,7.83
2018-04-22T07:39:19.194Z,8.20
2018-04-22T07:41:47.938Z,8.20
2018-04-22T07:44:16.696Z,7.87
2018-04-22T07:46:45.357Z,8.50
2018-04-22T07:49:14.336Z,7.80
2018-04-22T07:51:43.720Z,7.67
2018-04-22T07:54:13.863Z,7.40
2018-04-22T07:56:43.521Z,7.30
2018-04-22T07:59:12.331Z,7.20
2018-04-22T08:01:41.079Z,7.07
2018-04-22T08:04:09.665Z,6.63
2018-04-22T08:06:38.350Z,6.60
2018-04-22T08:09:07.020Z,6.30
2018-04-22T08:11:36.674Z,6.03
2018-04-22T08:14:05.764Z,6.50
2018-04-22T08:16:35.294Z,6.33
2018-04-22T08:19:04.883Z,5.77
2018-04-22T08:21:34.231Z,5.40
2018-04-22T08:24:03.642Z,6.13
2018-04-22T08:26:32.370Z,5.33
2018-04-22T08:29:01.078Z,5.30
2018-04-22T08:31:30.530Z,5.70
2018-04-22T08:33:59.266Z,4.93
2018-04-22T08:36:28.258Z,5.53
2018-04-22T08:38:56.970Z,4.47
2018-04-22T08:41:25.732Z,4.33
2018-04-22T08:43:54.434Z,4.53
2018-04-22T08:46:23.095Z,4.47
2018-04-22T08:48:52.108Z,4.57
2018-04-22T08:51:21.375Z,4.60
2018-04-22T08:53:50.941Z,4.27
2018-04-22T08:56:19.898Z,5.00
2018-04-22T08:58:48.485Z,4.47
2018-04-22T09:01:17.282Z,5.00
2018-04-22T09:03:45.904Z,5.30
2018-04-22T09:06:14.611Z,4.50
2018-04-22T09:08:43.267Z,4.90
2018-04-22T09:11:12.834Z,4.60
2018-04-22T09:13:41.500Z,5.50
2018-04-22T09:16:10.742Z,4.80
2018-04-22T09:18:39.538Z,5.30
2018-04-22T09:21:08.789Z,4.73
2018-04-22T09:23:38.033Z,5.73
2018-04-22T09:26:09.635Z,4.70
2018-04-22T09:28:39.449Z,4.87
2018-04-22T09:31:08.586Z,4.87
2018-04-22T09:33:37.850Z,5.17
2018-04-22T09:36:06.483Z,4.60
2018-04-22T09:38:35.258Z,4.87
2018-04-22T09:41:03.958Z,4.60
2018-04-22T09:43:32.704Z,4.70
2018-04-22T09:46:01.475Z,4.50
2018-04-22T09:48:30.368Z,4.33
2018-04-22T09:50:59.929Z,4.67
2018-04-22T09:53:29.677Z,5.10
2018-04-22T09:56:00.530Z,3.90
2018-04-22T09:58:29.441Z,3.90
2018-04-22T10:01:00.985Z,3.90
2018-04-22T10:03:32.280Z,3.93
2018-04-22T10:06:02.766Z,3.87
2018-04-22T10:08:31.457Z,3.67
2018-04-22T10:11:00.047Z,4.10
2018-04-22T10:13:28.758Z,3.87
2018-04-22T10:15:57.442Z,3.93
2018-04-22T10:18:26.685Z,3.97
2018-04-22T10:20:56.356Z,4.00
2018-04-22T10:23:25.947Z,3.67
2018-04-22T10:25:54.672Z,4.07
2018-04-22T10:28:23.280Z,4.00
2018-04-22T10:30:51.933Z,3.60
2018-04-22T10:33:20.613Z,4.20
2018-04-22T10:35:51.193Z,3.63
2018-04-22T10:38:19.793Z,4.00
2018-04-22T10:40:49.207Z,4.43
2018-04-22T10:43:18.744Z,3.97
2018-04-22T10:45:47.800Z,4.07
2018-04-22T10:48:17.215Z,3.80
2018-04-22T10:50:46.352Z,3.63
2018-04-22T10:53:15.123Z,3.80
2018-04-22T10:55:44.114Z,3.90
2018-04-22T10:58:13.095Z,4.03
2018-04-22T11:00:41.820Z,3.67
2018-04-22T11:03:10.529Z,4.57
2018-04-22T11:05:39.236Z,4.07
2018-04-22T11:08:08.909Z,3.90
2018-04-22T11:10:37.808Z,3.83
2018-04-22T11:13:06.469Z,4.13
2018-04-22T11:15:35.782Z,4.17
2018-04-22T11:18:06.261Z,4.00
2018-04-22T11:20:35.624Z,3.93
2018-04-22T11:23:04.767Z,4.03
2018-04-22T11:25:33.760Z,3.93
2018-04-22T11:28:02.600Z,4.40
2018-04-22T11:30:32.103Z,3.90
2018-04-22T11:33:00.686Z,4.43
2018-04-22T11:35:29.488Z,3.60
2018-04-22T11:37:58.910Z,4.50
2018-04-22T11:40:27.730Z,3.67
2018-04-22T11:42:57.301Z,4.13
2018-04-22T11:45:25.920Z,3.70
2018-04-22T11:47:54.952Z,4.03
2018-04-22T11:51:13.471Z,4.00
2018-04-22T11:53:43.222Z,3.90
2018-04-22T11:56:11.942Z,3.70
2018-04-22T11:58:40.583Z,4.17
2018-04-22T12:01:09.274Z,4.30
2018-04-22T12:03:38.006Z,4.03
2018-04-22T12:06:06.981Z,4.30
2018-04-22T12:08:35.777Z,4.20
2018-04-22T12:11:05.761Z,4.00
2018-04-22T12:13:35.285Z,4.37
2018-04-22T12:16:05.354Z,3.80
2018-04-22T12:18:34.813Z,4.23
2018-04-22T12:21:03.896Z,4.33
2018-04-22T12:23:33.035Z,4.10
2018-04-22T12:26:01.862Z,3.73
2018-04-22T12:28:30.702Z,3.70
2018-04-22T12:31:00.553Z,4.23
2018-04-22T12:33:29.441Z,3.70
2018-04-22T12:35:59.892Z,3.80
2018-04-22T12:38:29.574Z,4.37
2018-04-22T12:40:59.609Z,4.60
2018-04-22T12:43:28.572Z,3.83
2018-04-22T12:45:57.798Z,4.00
2018-04-22T12:48:28.498Z,4.40
2018-04-22T12:50:57.756Z,3.77
2018-04-22T12:53:26.597Z,4.20
2018-04-22T12:55:57.130Z,4.50
2018-04-22T12:58:28.058Z,3.90
2018-04-22T13:00:57.959Z,3.60
2018-04-22T13:03:29.748Z,3.53
2018-04-22T13:05:59.187Z,3.60
2018-04-22T13:08:28.275Z,3.50
2018-04-22T13:10:58.956Z,3.43
2018-04-22T13:13:28.640Z,3.80
2018-04-22T13:15:58.434Z,3.87
2018-04-22T13:18:27.736Z,3.33
2018-04-22T13:20:57.196Z,3.60
2018-04-22T13:23:26.523Z,3.50
2018-04-22T13:25:55.685Z,3.70
2018-04-22T13:28:27.613Z,3.83
2018-04-22T13:30:57.126Z,4.00
2018-04-22T13:33:26.193Z,3.47
2018-04-22T13:35:56.639Z,3.40
2018-04-22T13:38:26.006Z,3.80
2018-04-22T13:40:56.923Z,3.70
2018-04-22T13:43:26.795Z,3.67
2018-04-22T13:45:56.087Z,3.27
2018-04-22T13:48:25.240Z,3.57
2018-04-22T13:50:54.838Z,3.20
2018-04-22T13:53:25.407Z,3.17
2018-04-22T13:55:56.718Z,3.60
2018-04-22T13:58:26.638Z,3.20
2018-04-22T14:00:56.419Z,3.47
2018-04-22T14:03:25.794Z,3.20
2018-04-22T14:05:55.682Z,3.00
2018-04-22T14:08:24.550Z,3.00
2018-04-22T14:10:55.648Z,2.80
2018-04-22T14:13:24.410Z,2.47
2018-04-22T14:15:53.412Z,3.00
2018-04-22T14:18:23.922Z,3.07
2018-04-22T14:20:53.237Z,3.20
2018-04-22T14:23:24.506Z,2.83
2018-04-22T14:25:53.760Z,2.70
2018-04-22T14:28:23.463Z,2.50
2018-04-22T14:30:53.084Z,2.40
2018-04-22T14:33:22.431Z,2.30
2018-04-22T14:35:52.660Z,2.47
2018-04-22T14:38:21.461Z,2.30
2018-04-22T14:40:52.121Z,3.53
2018-04-22T14:43:23.758Z,3.23
2018-04-22T14:49:07.486Z,2.77
2018-04-22T14:51:36.275Z,2.33
2018-04-22T14:54:05.134Z,2.23
2018-04-22T14:56:34.772Z,2.00
2018-04-22T14:59:03.457Z,2.60
2018-04-22T15:01:32.939Z,5.30
2018-04-22T15:04:02.906Z,4.23
2018-04-22T15:06:32.587Z,2.67
2018-04-22T15:09:01.255Z,3.20
2018-04-22T15:11:29.853Z,4.23
2018-04-22T15:13:58.645Z,4.37
2018-04-22T15:16:27.356Z,20.30
2018-04-22T15:18:56.333Z,15.47
2018-04-22T15:21:25.469Z,13.43
2018-04-22T15:23:54.144Z,4.40
2018-04-22T15:26:22.933Z,5.27
2018-04-22T15:28:51.704Z,25.93
2018-04-22T15:31:20.539Z,26.43
2018-04-22T15:33:49.654Z,7.63
2018-04-22T15:36:18.985Z,7.30
2018-04-22T15:38:48.817Z,6.87
2018-04-22T15:41:18.659Z,2.80
2018-04-22T15:43:48.545Z,2.40
2018-04-22T15:46:17.440Z,2.40
2018-04-22T15:48:47.199Z,3.00
2018-04-22T15:51:15.953Z,2.70
2018-04-22T15:53:45.399Z,2.70
2018-04-22T15:56:14.201Z,2.40
2018-04-22T15:58:42.897Z,2.30
2018-04-22T16:01:12.566Z,2.40
2018-04-22T16:03:41.729Z,2.70
2018-04-22T16:06:12.131Z,2.50
2018-04-22T16:08:41.440Z,2.70
2018-04-22T16:11:10.683Z,6.80
2018-04-22T16:13:40.123Z,2.63
2018-04-22T16:16:09.203Z,2.80
2018-04-22T16:18:38.062Z,2.70
2018-04-22T16:21:06.911Z,2.97
2018-04-22T16:23:35.579Z,3.60
2018-04-22T16:26:05.101Z,4.10
2018-04-22T16:28:33.946Z,3.07
2018-04-22T16:31:03.494Z,3.33
2018-04-22T16:33:33.768Z,4.37
2018-04-22T16:36:02.912Z,3.60
2018-04-22T16:38:32.370Z,3.23
2018-04-22T16:41:01.345Z,2.70
2018-04-22T16:43:30.081Z,3.50
2018-04-22T16:45:58.890Z,3.20
2018-04-22T16:48:27.776Z,3.10
2018-04-22T16:50:56.929Z,3.80
2018-04-22T16:53:26.104Z,3.47
2018-04-22T16:55:54.887Z,3.20
2018-04-22T16:58:23.681Z,3.43
2018-04-22T17:00:52.533Z,3.67
2018-04-22T17:03:21.405Z,3.70
2018-04-22T17:05:51.067Z,3.17
2018-04-22T17:08:20.567Z,3.33
2018-04-22T17:10:49.339Z,3.30
2018-04-22T17:13:18.196Z,3.63
2018-04-22T17:15:47.069Z,3.60
2018-04-22T17:18:17.394Z,4.57
2018-04-22T17:20:46.505Z,7.17
2018-04-22T17:23:15.645Z,9.23
2018-04-22T17:25:44.842Z,5.97
2018-04-22T17:28:14.140Z,4.90
2018-04-22T17:30:43.165Z,3.90
2018-04-22T17:33:12.806Z,4.30
2018-04-22T17:35:43.167Z,5.07
2018-04-22T17:38:12.940Z,3.93
2018-04-22T17:40:42.080Z,5.87
2018-04-22T17:43:11.003Z,4.37
2018-04-22T17:45:39.889Z,3.20
2018-04-22T17:48:08.847Z,3.47
2018-04-22T17:50:37.796Z,3.40
2018-04-22T17:53:06.862Z,3.77
2018-04-22T17:55:36.003Z,3.43
2018-04-22T17:58:05.793Z,3.47
2018-04-22T18:00:35.581Z,3.83
2018-04-22T18:03:05.584Z,3.97
2018-04-22T18:05:36.094Z,3.80
2018-04-22T18:08:05.401Z,3.27
2018-04-22T18:10:34.442Z,3.57
2018-04-22T18:13:03.383Z,3.10
2018-04-22T18:15:32.823Z,3.30
2018-04-22T18:18:02.554Z,3.23
2018-04-22T18:20:32.281Z,3.63
2018-04-22T18:23:02.114Z,3.80
2018-04-22T18:25:32.828Z,3.73
2018-04-22T18:28:02.306Z,3.63
2018-04-22T18:30:31.859Z,3.80
2018-04-22T18:33:00.838Z,3.73
2018-04-22T18:35:31.170Z,4.20
2018-04-22T18:38:01.169Z,3.80
2018-04-22T18:40:31.672Z,3.97
2018-04-22T18:43:02.475Z,3.87
2018-04-22T18:45:31.489Z,3.80
2018-04-22T18:48:01.199Z,3.87
2018-04-22T18:53:05.454Z,3.60
2018-04-22T18:55:34.562Z,3.30
2018-04-22T18:58:04.509Z,3.40
2018-04-22T19:00:33.979Z,3.43
2018-04-22T19:03:04.103Z,3.87
2018-04-22T19:05:34.358Z,3.47
2018-04-22T19:08:05.043Z,3.83
2018-04-22T19:10:34.393Z,3.70
2018-04-22T19:13:03.996Z,3.97
2018-04-22T19:15:34.560Z,4.20
2018-04-22T19:18:04.739Z,4.50
2018-04-22T19:20:35.812Z,4.23
2018-04-22T19:23:06.597Z,4.00
2018-04-22T19:25:36.419Z,4.17
2018-04-22T19:28:06.729Z,4.27
2018-04-22T19:30:41.195Z,4.17
2018-04-22T19:33:11.048Z,4.13
2018-04-22T19:35:42.277Z,4.33
2018-04-22T19:38:14.845Z,4.17
2018-04-22T19:40:44.237Z,4.47
2018-04-22T19:43:13.305Z,4.30
2018-04-22T19:45:43.004Z,4.43
2018-04-22T19:48:13.660Z,4.47
2018-04-22T19:50:45.516Z,4.30
2018-04-22T19:53:15.172Z,4.03
2018-04-22T19:55:44.398Z,4.40
2018-04-22T19:58:15.841Z,4.60
2018-04-22T20:00:45.592Z,3.87
2018-04-22T20:03:15.032Z,4.30
2018-04-22T20:05:45.367Z,4.57
2018-04-22T20:08:15.146Z,4.50
2018-04-22T20:10:44.423Z,4.53
2018-04-22T20:13:13.709Z,4.43
2018-04-22T20:18:16.702Z,4.80
2018-04-22T20:20:49.693Z,4.67
2018-04-22T20:23:20.497Z,4.33
2018-04-22T20:25:50.465Z,4.90
2018-04-22T20:28:24.393Z,4.13
2018-04-22T20:30:54.078Z,4.47
2018-04-22T20:33:24.239Z,4.57
2018-04-22T20:35:54.496Z,4.90
2018-04-22T20:38:24.095Z,4.90
2018-04-22T20:40:55.122Z,4.60
2018-04-22T20:43:24.338Z,4.97
2018-04-22T20:45:53.950Z,5.30
2018-04-22T20:48:23.145Z,5.37
2018-04-22T20:50:52.181Z,4.80
2018-04-22T20:53:21.934Z,5.17
2018-04-22T20:55:51.285Z,4.73
2018-04-22T21:00:55.683Z,4.53
2018-04-22T21:05:59.386Z,4.80
2018-04-22T21:08:28.474Z,5.00
2018-04-22T21:10:57.188Z,5.50
2018-04-22T21:13:26.909Z,5.30
2018-04-22T21:15:56.519Z,5.30
2018-04-22T21:18:25.320Z,6.00
2018-04-22T21:20:55.286Z,5.23
2018-04-22T21:23:24.885Z,5.47
2018-04-22T21:25:58.591Z,5.17
2018-04-22T21:28:29.710Z,5.30
2018-04-22T21:30:59.421Z,4.57
2018-04-22T21:33:29.200Z,4.90
2018-04-22T21:35:58.788Z,5.17
2018-04-22T21:38:27.502Z,5.30
2018-04-22T21:40:56.244Z,5.10
2018-04-22T21:46:01.211Z,5.23
2018-04-22T21:48:30.552Z,5.23
2018-04-22T21:50:59.505Z,5.67
2018-04-22T21:53:28.470Z,5.30
2018-04-22T21:55:57.374Z,5.20
2018-04-22T21:58:26.225Z,5.47
2018-04-22T22:00:55.763Z,5.43
2018-04-22T22:03:24.855Z,6.13
2018-04-22T22:05:54.940Z,5.03
2018-04-22T22:08:25.770Z,5.30
2018-04-22T22:10:55.327Z,5.77
2018-04-22T22:15:58.146Z,5.60
2018-04-22T22:18:27.188Z,5.50
2018-04-22T22:20:55.980Z,5.83
2018-04-22T22:23:24.683Z,5.33
2018-04-22T22:25:53.355Z,5.73
2018-04-22T22:28:22.684Z,5.10
2018-04-22T22:33:26.610Z,5.77
2018-04-22T22:35:55.380Z,6.17
2018-04-22T22:38:24.414Z,5.47
2018-04-22T22:40:53.595Z,5.53
2018-04-22T22:43:22.312Z,5.57
2018-04-22T22:45:50.975Z,5.70
2018-04-22T22:48:20.548Z,5.93
2018-04-22T22:50:49.370Z,6.37
2018-04-22T22:53:18.004Z,5.83
2018-04-22T22:55:46.715Z,6.07
2018-04-22T22:58:15.273Z,6.10
2018-04-22T23:00:44.020Z,6.13
2018-04-22T23:03:13.633Z,6.10
2018-04-22T23:05:42.364Z,5.97
2018-04-22T23:08:11.246Z,5.87
2018-04-22T23:10:41.599Z,6.97
2018-04-22T23:13:10.537Z,6.50
2018-04-22T23:18:12.826Z,6.77
2018-04-22T23:20:41.434Z,6.57
2018-04-22T23:23:10.121Z,6.47
2018-04-22T23:25:39.558Z,6.20
2018-04-22T23:28:08.233Z,6.70
2018-04-22T23:30:37.588Z,7.30
2018-04-22T23:33:06.477Z,6.50
2018-04-22T23:35:36.536Z,6.43
2018-04-22T23:38:05.654Z,7.67
2018-04-22T23:40:34.310Z,7.90
2018-04-22T23:43:02.911Z,7.27
2018-04-22T23:45:31.491Z,7.57
2018-04-22T23:48:00.167Z,6.87
2018-04-22T23:50:28.758Z,7.50
2018-04-22T23:52:58.674Z,7.03
2018-04-22T23:55:28.081Z,7.93
2018-04-22T23:57:56.779Z,7.47
